Aeroporto :
LOGIN :

Iscrizione | Disclaimer

   EN    FR    IT 

 










Sommario :    VFR   VFR Marginale   IFR   IFR Intensivo   IFR Molto Intensivo
Visibilità : 
Base nubi : 
>= 8 km
>= 3000ft
5 / 8 km
1000 / 3000 ft
1500m / 5 km
500 / 1000 ft
800 / 1500m
200 / 500 ft
< 800m
< 200 ft
Simboli :   Temporali  Nebbia  Neve Forte  Precipitazioni Forti  Vento > 20 kt
SIGMETs :   Varie  Temporali  Ghiacco  Turbolenza  Onda orograficha  Ceneri Vulcaniche







- Altitudine del aeroporto : 274 ft
- Codice IATA : PUY


LDPL - Pula

ULTIMO METAR :
  • 230700Z 07008KT 030V110 CAVOK 27/18 Q1020 BECMG 06012KT

METARs OBSOLETI :
  • 230630Z 05005KT 020V090 CAVOK 26/18 Q1020 BECMG 05010KT
  • 230600Z 05004KT 020V080 CAVOK 25/18 Q1019 BECMG 05010KT
  • 230530Z 05006KT CAVOK 24/17 Q1019 NOSIG
  • 230500Z 04007KT CAVOK 23/17 Q1019 NOSIG
  • 230430Z 05007KT CAVOK 23/16 Q1019 NOSIG

TAF TAF LDPL
Valido dal 23 a 06 ore il 24 a 06 ore UTC


230525Z 2306/2406 06012KT 9999 FEW050 TX29/2312Z TN22/2404Z
TEMPO 2312/2318 01006KT
PROB30
TEMPO 2400/2406 TS FEW050CB
Nessun NOTAM noto per questo aeroporto.



MetMap, La meteo Aeronautica in un colpo d'occhio ! - Copyright ORBIFLY Dicembre 2007 - Disclaimer

ORBIFLY MET'MAP TEAM :

Programmazione e sviluppo : Alexandra Zaïnal
Concezione e sviluppo : Baudouin d'Aumeries
Co-Programmazione e sviluppo : Marc-Olivier Méhu
Supporto tecnico e logistico : Manuel Goepfert
Aiuto per la traduzione : Arnaldo La Scala

Contatto : metmap@orbifly.com




FONTI E CREDITI :

   NOAA